Time;durP1;ratioP1;P1;durP2;ratioP2;P2;SDS_P1;SDS_P2;PMS_P1;PMS_P2;Temp;Humidity;BMP_temperature;BMP_pressure;BME280_temperature;BME280_humidity;BME280_pressure;Samples;Min_cycle;Max_cycle;Signal;HPM_P1;HPM_P2
2021/01/19 00:00:09;;;;;;;145.53;66.73;;;;;;;-3.32;80.05;99089.27;1779336;81;21217;-60
2021/01/19 00:02:35;;;;;;;148.77;66.40;;;;;;;-3.21;80.44;99091.52;1742566;82;21472;-62
2021/01/19 00:05:06;;;;;;;144.77;65.80;;;;;;;-3.11;80.07;99087.67;1778930;81;21094;-63
2021/01/19 00:07:33;;;;;;;142.70;64.93;;;;;;;-3.06;79.86;99078.42;1741875;82;21674;-61
2021/01/19 00:09:58;;;;;;;141.60;62.80;;;;;;;-2.96;79.93;99074.02;1778804;80;21114;-58
2021/01/19 00:12:24;;;;;;;159.10;63.53;;;;;;;-2.94;79.00;99065.83;1742353;82;21272;-60
2021/01/19 00:14:51;;;;;;;143.33;64.63;;;;;;;-2.86;79.42;99062.73;1779331;81;21179;-62
2021/01/19 00:17:17;;;;;;;146.47;67.03;;;;;;;-2.84;79.50;99066.45;1742399;82;21118;-61
2021/01/19 00:19:43;;;;;;;152.40;66.80;;;;;;;-2.81;79.36;99062.77;1779153;80;21536;-62
2021/01/19 00:22:09;;;;;;;153.70;67.07;;;;;;;-2.77;79.52;99061.73;1742711;82;21114;-61
2021/01/19 00:24:35;;;;;;;155.40;67.20;;;;;;;-2.76;79.76;99058.84;1779381;80;21091;-59
2021/01/19 00:27:01;;;;;;;149.87;66.40;;;;;;;-2.80;79.59;99055.09;1742325;82;21145;-60
2021/01/19 00:29:26;;;;;;;159.20;67.90;;;;;;;-2.77;79.39;99066.52;1779097;80;21519;-61
2021/01/19 00:31:53;;;;;;;146.67;64.83;;;;;;;-2.97;75.66;99063.68;1742425;82;21074;-59
2021/01/19 00:34:20;;;;;;;165.63;72.03;;;;;;;-3.29;73.35;99068.07;1779384;81;21109;-60
2021/01/19 00:36:47;;;;;;;164.80;70.03;;;;;;;-3.16;79.15;99064.53;1742467;82;21301;-60
2021/01/19 00:39:13;;;;;;;161.67;74.63;;;;;;;-3.24;74.47;99060.99;1779182;80;21133;-60
2021/01/19 00:41:39;;;;;;;166.90;73.93;;;;;;;-3.66;74.63;99066.55;1742326;82;21146;-60
2021/01/19 00:44:06;;;;;;;168.47;71.40;;;;;;;-3.71;75.03;99057.22;1779663;81;21071;-60
2021/01/19 00:46:32;;;;;;;169.97;72.97;;;;;;;-3.62;77.57;99059.19;1742157;82;21277;-59
2021/01/19 00:48:58;;;;;;;153.53;69.93;;;;;;;-3.67;76.44;99069.72;1776269;81;21122;-60
2021/01/19 00:51:24;;;;;;;149.17;67.57;;;;;;;-3.73;77.59;99068.58;1770505;80;21124;-59
2021/01/19 00:53:50;;;;;;;153.07;66.77;;;;;;;-3.93;77.38;99071.73;1770704;81;21127;-58
2021/01/19 00:56:16;;;;;;;155.97;68.63;;;;;;;-3.52;81.03;99056.66;1770901;80;21249;-60
2021/01/19 00:58:43;;;;;;;139.60;64.03;;;;;;;-3.52;81.03;99056.66;1770391;81;21152;-60
2021/01/19 01:01:09;;;;;;;152.33;66.07;;;;;;;-3.39;81.81;99048.07;1733949;82;21137;-61
2021/01/19 01:03:35;;;;;;;151.13;67.37;;;;;;;-3.23;81.97;99040.05;1770523;81;21091;-60
2021/01/19 01:06:02;;;;;;;148.53;65.37;;;;;;;-3.10;82.54;99038.33;1770665;81;21544;-61
2021/01/19 01:08:28;;;;;;;137.50;62.80;;;;;;;-2.94;82.33;99032.66;1734189;83;21115;-60
2021/01/19 01:10:54;;;;;;;130.77;58.00;;;;;;;-2.91;82.04;99037.45;1770660;81;21543;-60
2021/01/19 01:13:20;;;;;;;131.97;61.77;;;;;;;-2.80;82.54;99033.85;1770368;80;21106;-62
2021/01/19 01:15:46;;;;;;;137.70;58.50;;;;;;;-2.77;82.43;99032.02;1770767;81;21111;-58
2021/01/19 01:18:14;;;;;;;138.60;60.67;;;;;;;-2.69;81.86;99034.22;1770781;81;21508;-60
2021/01/19 01:20:43;;;;;;;134.20;61.97;;;;;;;-2.68;82.32;99030.52;1733156;83;21592;-62
2021/01/19 01:23:13;;;;;;;133.63;59.53;;;;;;;-2.59;82.47;99027.69;1770438;81;21115;-59
2021/01/19 01:25:41;;;;;;;142.87;62.00;;;;;;;-2.64;82.01;99019.67;1734342;82;21138;-60
2021/01/19 01:28:07;;;;;;;127.47;57.80;;;;;;;-2.55;82.39;99024.77;1770866;81;21119;-59
2021/01/19 01:30:33;;;;;;;131.93;63.70;;;;;;;-2.56;81.99;99016.56;1734284;82;21590;-60
2021/01/19 01:32:59;;;;;;;136.40;58.93;;;;;;;-2.47;82.48;99012.37;1770459;81;21259;-57
2021/01/19 01:35:24;;;;;;;141.63;62.27;;;;;;;-2.47;82.42;99011.56;1733984;83;21088;-59
2021/01/19 01:37:52;;;;;;;131.77;60.83;;;;;;;-2.40;82.23;98998.09;1770516;81;21075;-58
2021/01/19 01:40:22;;;;;;;139.83;65.67;;;;;;;-2.42;82.16;99003.64;1770517;80;21128;-59
2021/01/19 01:42:52;;;;;;;136.83;60.80;;;;;;;-2.33;82.53;99002.66;1733800;83;21111;-60
2021/01/19 01:45:20;;;;;;;136.30;64.00;;;;;;;-2.33;82.53;99002.66;1770377;80;21090;-58
2021/01/19 01:47:49;;;;;;;141.83;66.70;;;;;;;-2.28;82.38;98999.48;1770467;81;21099;-59
2021/01/19 01:50:16;;;;;;;145.00;64.40;;;;;;;-2.27;81.89;98993.13;1774902;81;21523;-60
2021/01/19 01:52:43;;;;;;;155.00;72.13;;;;;;;-2.25;82.20;98986.24;1742062;82;21119;-60
2021/01/19 01:55:09;;;;;;;153.17;69.13;;;;;;;-2.22;82.66;98977.75;1778863;81;21599;-59
2021/01/19 01:57:38;;;;;;;149.00;71.00;;;;;;;-2.32;81.10;98981.66;1742132;82;21556;-58
2021/01/19 02:00:07;;;;;;;157.60;72.40;;;;;;;-2.40;81.28;98980.83;1779261;81;21091;-58
2021/01/19 02:02:33;;;;;;;158.53;71.67;;;;;;;-2.47;81.59;98978.36;1742214;82;21102;-57
2021/01/19 02:05:00;;;;;;;153.60;72.80;;;;;;;-2.40;81.70;98978.97;1779177;81;21151;-61
2021/01/19 02:07:34;;;;;;;160.43;74.70;;;;;;;-2.40;82.39;98978.17;1742086;82;21083;-58
2021/01/19 02:10:08;;;;;;;160.17;73.60;;;;;;;-2.39;82.02;98976.57;1778772;80;21155;-59
2021/01/19 02:12:55;;;;;;;168.20;73.57;;;;;;;-2.35;82.77;98971.55;1776926;81;21122;-62
2021/01/19 02:15:31;;;;;;;157.77;72.10;;;;;;;-2.31;83.14;98973.44;1778835;80;21735;-61
2021/01/19 02:18:23;;;;;;;160.77;73.43;;;;;;;-2.29;82.97;98970.02;1778300;81;21208;-57
2021/01/19 02:21:17;;;;;;;153.32;69.45;;;;;;;-2.21;83.31;98973.50;1778872;81;21134;-60
2021/01/19 02:24:08;;;;;;;149.10;69.00;;;;;;;-2.23;83.42;98968.98;1777267;81;21094;-60
2021/01/19 02:27:14;;;;;;;150.97;66.90;;;;;;;-2.20;83.17;98964.48;1779238;80;21159;-61
2021/01/19 02:30:09;;;;;;;151.13;68.30;;;;;;;-2.22;82.84;98965.28;1778929;80;21543;-62
2021/01/19 02:33:22;;;;;;;142.53;64.43;;;;;;;-2.11;83.49;98956.30;1735798;82;21111;-60
2021/01/19 02:36:27;;;;;;;154.60;70.00;;;;;;;-2.13;83.56;98958.92;1730897;83;21089;-59
2021/01/19 02:38:59;;;;;;;155.07;69.47;;;;;;;-2.09;83.20;98946.73;1730563;83;21579;-60
2021/01/19 02:41:26;;;;;;;161.03;73.80;;;;;;;-2.08;83.07;98946.48;1770658;80;21102;-61
2021/01/19 02:44:03;;;;;;;158.07;71.60;;;;;;;-2.06;83.53;98948.86;1742048;82;21559;-59
2021/01/19 02:46:29;;;;;;;149.37;70.63;;;;;;;-2.02;84.01;98952.09;1749095;81;21083;-61
2021/01/19 02:48:55;;;;;;;153.47;71.07;;;;;;;-2.00;83.91;98942.54;1748674;81;21257;-60
2021/01/19 02:51:21;;;;;;;154.60;71.60;;;;;;;-1.99;83.83;98945.47;1729457;82;21584;-60
2021/01/19 02:53:49;;;;;;;148.17;70.17;;;;;;;-1.93;84.09;98941.77;1776237;81;21584;-60
2021/01/19 02:56:21;;;;;;;146.63;68.30;;;;;;;-1.97;83.77;98939.36;1729375;82;21573;-60
2021/01/19 02:59:10;;;;;;;148.53;72.72;;;;;;;-1.89;83.80;98937.54;1746104;81;21539;-58
2021/01/19 03:01:42;;;;;;;154.93;71.93;;;;;;;-1.96;83.67;98935.65;1776519;81;21067;-62
2021/01/19 03:04:08;;;;;;;158.47;71.62;;;;;;;-1.88;84.51;98926.37;1775965;81;21087;-61
2021/01/19 03:06:34;;;;;;;156.77;73.77;;;;;;;-1.89;84.47;98933.55;1729122;83;21145;-59
2021/01/19 03:09:00;;;;;;;144.83;66.20;;;;;;;-1.80;84.68;98932.53;1745801;81;21101;-62
2021/01/19 03:11:26;;;;;;;142.07;65.37;;;;;;;-1.82;84.54;98935.44;1729285;83;21278;-58
2021/01/19 03:13:52;;;;;;;133.53;62.63;;;;;;;-1.82;84.33;98922.67;1746016;81;21083;-61
2021/01/19 03:16:19;;;;;;;148.77;67.57;;;;;;;-1.83;84.10;98922.39;1729483;83;21095;-60
2021/01/19 03:18:48;;;;;;;134.33;61.27;;;;;;;-1.81;84.71;98922.95;1776151;80;21542;-60
2021/01/19 03:21:14;;;;;;;146.43;65.50;;;;;;;-1.76;84.82;98921.09;1729630;82;21103;-62
2021/01/19 03:23:40;;;;;;;136.70;64.23;;;;;;;-1.77;85.13;98916.86;1745618;81;21571;-63
2021/01/19 03:26:06;;;;;;;138.53;60.27;;;;;;;-1.73;85.07;98921.92;1729457;83;21118;-61
2021/01/19 03:28:33;;;;;;;129.50;62.40;;;;;;;-1.75;85.63;98915.25;1776262;81;21573;-61
2021/01/19 03:31:01;;;;;;;133.13;61.77;;;;;;;-1.69;85.97;98917.69;1729727;83;21110;-60
2021/01/19 03:33:26;;;;;;;138.93;61.13;;;;;;;-1.69;86.37;98905.72;1776455;81;21154;-60
2021/01/19 03:35:52;;;;;;;127.43;57.10;;;;;;;-1.66;86.52;98903.06;1729412;82;21087;-62
2021/01/19 03:38:18;;;;;;;116.77;56.53;;;;;;;-1.67;86.62;98906.77;1776620;81;21162;-61
2021/01/19 03:40:44;;;;;;;130.40;61.93;;;;;;;-1.72;86.35;98906.22;1729591;83;21136;-60
2021/01/19 03:43:10;;;;;;;130.30;58.67;;;;;;;-1.78;86.23;98911.79;1745975;81;21102;-61
2021/01/19 03:45:36;;;;;;;123.07;58.07;;;;;;;-1.81;86.07;98900.35;1729520;83;21685;-61
2021/01/19 03:48:03;;;;;;;129.67;60.23;;;;;;;-1.80;86.65;98902.73;1776375;81;21244;-60
2021/01/19 03:50:29;;;;;;;137.30;62.67;;;;;;;-1.83;86.82;98899.27;1732321;82;21562;-60
2021/01/19 03:52:56;;;;;;;133.23;62.57;;;;;;;-1.80;86.76;98896.64;1770806;80;21472;-60
2021/01/19 03:55:22;;;;;;;126.53;59.40;;;;;;;-1.83;87.59;98895.28;1734114;82;21108;-62
2021/01/19 03:57:48;;;;;;;121.10;58.00;;;;;;;-1.78;87.15;98896.64;1770537;80;21103;-62
2021/01/19 04:00:16;;;;;;;135.20;60.87;;;;;;;-1.76;87.55;98892.41;1734132;83;21241;-62
2021/01/19 04:02:42;;;;;;;129.77;59.63;;;;;;;-1.71;87.46;98893.20;1770629;81;21543;-62
2021/01/19 04:05:10;;;;;;;135.93;62.50;;;;;;;-1.70;87.42;98888.16;1771096;80;21103;-61
2021/01/19 04:07:40;;;;;;;123.27;59.63;;;;;;;-1.78;87.56;98890.52;1770560;81;21099;-62
2021/01/19 04:10:11;;;;;;;126.77;60.03;;;;;;;-1.70;87.51;98889.49;1734359;83;21564;-62
2021/01/19 04:12:37;;;;;;;137.22;62.93;;;;;;;-1.70;87.74;98887.36;1770581;81;21120;-62
2021/01/19 04:15:05;;;;;;;128.47;57.90;;;;;;;-1.65;87.34;98883.39;1770933;81;21095;-61
2021/01/19 04:17:31;;;;;;;129.80;61.13;;;;;;;-1.96;85.33;98892.59;1734074;83;21121;-60
2021/01/19 04:19:57;;;;;;;129.63;57.60;;;;;;;-1.88;87.20;98892.62;1770502;81;21553;-58
2021/01/19 04:22:24;;;;;;;122.73;57.57;;;;;;;-1.78;87.19;98887.86;1770500;80;21083;-59
2021/01/19 04:24:53;;;;;;;121.90;57.23;;;;;;;-1.75;86.35;98896.64;1770769;81;21524;-59
2021/01/19 04:27:20;;;;;;;124.77;56.67;;;;;;;-1.68;87.47;98889.21;1734380;83;21118;-60
2021/01/19 04:29:46;;;;;;;111.97;49.77;;;;;;;-1.66;88.31;98887.91;1770809;81;21517;-60
2021/01/19 04:32:12;;;;;;;125.13;54.57;;;;;;;-1.92;84.79;98891.55;1770706;80;21167;-60
2021/01/19 04:34:38;;;;;;;125.73;56.67;;;;;;;-1.73;87.94;98883.90;1734043;83;21741;-60
2021/01/19 04:37:04;;;;;;;131.33;58.30;;;;;;;-1.59;88.99;98883.14;1770406;81;21114;-59
2021/01/19 04:39:30;;;;;;;124.97;55.83;;;;;;;-1.76;87.92;98887.86;1770834;81;21120;-61
2021/01/19 04:41:56;;;;;;;126.57;58.07;;;;;;;-1.68;88.57;98891.34;1770749;81;21531;-61
2021/01/19 04:44:24;;;;;;;126.17;59.07;;;;;;;-1.64;89.25;98884.97;1770879;81;21088;-60
2021/01/19 04:46:50;;;;;;;132.70;59.10;;;;;;;-1.60;89.18;98884.19;1770781;81;21176;-58
2021/01/19 04:49:17;;;;;;;127.80;60.27;;;;;;;-1.50;89.92;98884.20;1734080;82;21123;-61
2021/01/19 04:51:43;;;;;;;114.73;54.83;;;;;;;-1.38;90.14;98884.48;1770888;81;21091;-62
2021/01/19 04:54:09;;;;;;;124.87;58.03;;;;;;;-1.34;90.32;98881.04;1770476;80;21161;-61
2021/01/19 04:56:38;;;;;;;113.93;54.97;;;;;;;-1.34;90.71;98881.57;1733991;82;21060;-62
2021/01/19 04:59:12;;;;;;;124.13;56.53;;;;;;;-1.35;90.12;98883.42;1770457;81;21252;-62
2021/01/19 05:01:52;;;;;;;121.00;51.20;;;;;;;-1.43;90.13;98889.81;1770422;80;21571;-61
2021/01/19 05:04:51;;;;;;;123.57;55.03;;;;;;;-1.40;90.27;98888.76;1768384;81;21084;-59
2021/01/19 05:07:33;;;;;;;124.93;55.00;;;;;;;-1.44;91.42;98883.70;1770145;81;21144;-61
2021/01/19 05:10:08;;;;;;;117.47;55.63;;;;;;;-1.33;91.63;98884.50;1612671;89;21651;-61
2021/01/19 05:12:40;;;;;;;115.50;54.00;;;;;;;-1.36;92.67;98883.71;1635674;88;21275;-61
2021/01/19 05:15:08;;;;;;;;;;;;;;;-1.39;92.72;98883.72;1638008;88;21218;-63
2021/01/19 05:17:34;;;;;;;102.30;49.03;;;;;;;-1.30;94.37;98884.77;1635753;87;20244;-61
2021/01/19 05:20:01;;;;;;;108.73;51.03;;;;;;;-1.29;94.50;98885.05;1614083;88;21154;-59
2021/01/19 05:22:26;;;;;;;107.47;50.27;;;;;;;-1.24;95.75;98889.58;1636013;88;21128;-62
2021/01/19 05:24:52;;;;;;;106.53;49.33;;;;;;;-1.22;95.87;98889.58;1635885;88;21112;-63
2021/01/19 05:27:18;;;;;;;104.70;51.87;;;;;;;-1.18;97.20;98888.52;1635685;88;21130;-61
2021/01/19 05:29:44;;;;;;;109.80;50.27;;;;;;;-1.14;96.55;98889.05;1635665;88;21128;-62
2021/01/19 05:32:10;;;;;;;108.63;49.33;;;;;;;-1.05;97.31;98882.13;1635611;88;21207;-63
2021/01/19 05:34:37;;;;;;;121.23;54.97;;;;;;;-1.04;97.89;98882.92;1635669;88;21143;-61
2021/01/19 05:37:03;;;;;;;107.87;51.53;;;;;;;-0.93;97.18;98880.53;1635914;88;21553;-63
2021/01/19 05:39:28;;;;;;;98.90;45.97;;;;;;;-0.89;98.69;98885.59;1635637;88;21174;-63
2021/01/19 05:41:55;;;;;;;108.60;49.87;;;;;;;-1.01;100.00;98883.72;1635640;88;21195;-64
2021/01/19 05:44:27;;;;;;;97.17;47.63;;;;;;;-0.82;99.26;98883.45;1635517;88;21326;-62
2021/01/19 05:46:59;;;;;;;99.63;47.30;;;;;;;-0.79;100.00;98884.80;1655810;84;21220;-63
2021/01/19 05:49:38;;;;;;;95.70;46.58;;;;;;;-0.72;99.98;98883.46;1770881;81;21156;-63
2021/01/19 05:52:08;;;;;;;92.03;45.00;;;;;;;-0.70;100.00;98883.17;1770393;81;21600;-61
2021/01/19 05:54:48;;;;;;;84.40;41.17;;;;;;;-0.69;100.00;98886.11;1770513;80;21136;-63
2021/01/19 05:57:23;;;;;;;86.50;40.63;;;;;;;-0.68;100.00;98878.39;1770398;81;21097;-63
2021/01/19 06:00:03;;;;;;;83.33;39.40;;;;;;;-0.60;100.00;98886.62;1770530;81;21559;-60
2021/01/19 06:02:41;;;;;;;77.13;38.03;;;;;;;-0.59;100.00;98883.42;1731989;82;21180;-62
2021/01/19 06:05:12;;;;;;;84.10;40.10;;;;;;;-0.68;100.00;98883.72;1770440;80;21567;-62
2021/01/19 06:07:39;;;;;;;75.37;38.43;;;;;;;-0.66;100.00;98882.38;1734012;83;21095;-60
2021/01/19 06:10:16;;;;;;;72.97;35.17;;;;;;;-0.57;100.00;98884.77;1770796;81;21071;-62
2021/01/19 06:12:43;;;;;;;78.10;38.20;;;;;;;-0.57;100.00;98878.64;1733892;83;21088;-60
2021/01/19 06:15:10;;;;;;;77.97;35.80;;;;;;;-0.46;100.00;98876.75;1770538;81;21090;-63
2021/01/19 06:17:36;;;;;;;81.70;37.60;;;;;;;-0.48;100.00;98870.34;1770377;80;21111;-62
2021/01/19 06:20:07;;;;;;;79.87;38.83;;;;;;;-0.31;100.00;98872.19;1736702;82;21535;-63
2021/01/19 06:22:34;;;;;;;78.40;38.00;;;;;;;-0.30;100.00;98867.09;1773445;80;21059;-61
2021/01/19 06:25:01;;;;;;;78.13;37.33;;;;;;;-0.36;100.00;98865.53;1748794;81;21123;-64
2021/01/19 06:27:33;;;;;;;86.73;40.87;;;;;;;-0.38;100.00;98868.21;1733831;83;21175;-63
2021/01/19 06:30:09;;;;;;;76.97;37.55;;;;;;;-0.19;100.00;98866.56;1770572;81;21136;-64
2021/01/19 06:32:47;;;;;;;78.27;34.80;;;;;;;-0.10;100.00;98870.23;1652379;87;21230;-62
2021/01/19 06:35:19;;;;;;;74.03;36.17;;;;;;;-0.12;100.00;98867.06;1633291;88;21565;-62
2021/01/19 06:37:48;;;;;;;77.17;37.23;;;;;;;-0.12;100.00;98871.06;1685819;85;21133;-63
2021/01/19 06:40:16;;;;;;;76.50;34.97;;;;;;;-0.08;100.00;98869.45;1685734;85;21543;-63
2021/01/19 06:42:42;;;;;;;78.67;37.07;;;;;;;-0.13;100.00;98870.79;1685691;85;21269;-63
2021/01/19 06:45:12;;;;;;;77.80;34.37;;;;;;;-0.13;100.00;98871.59;1685815;85;21117;-61
2021/01/19 06:47:50;;;;;;;69.97;32.30;;;;;;;-0.20;100.00;98867.63;1685814;85;21229;-62
2021/01/19 06:50:25;;;;;;;74.67;32.73;;;;;;;-0.04;100.00;98870.50;1685747;84;21582;-64
2021/01/19 06:53:22;;;;;;;65.60;31.30;;;;;;;-0.04;100.00;98867.84;1684353;85;21246;-65
2021/01/19 06:56:01;;;;;;;63.23;31.90;;;;;;;-0.03;100.00;98867.55;1668824;85;21312;-63
2021/01/19 06:58:50;;;;;;;63.83;31.07;;;;;;;-0.02;100.00;98868.34;1684647;85;21279;-63
2021/01/19 07:01:24;;;;;;;68.57;33.40;;;;;;;-0.14;100.00;98866.52;1685855;85;21546;-63
2021/01/19 07:04:26;;;;;;;63.70;30.13;;;;;;;-0.07;100.00;98873.69;1685883;85;21141;-62
2021/01/19 07:07:22;;;;;;;67.37;35.10;;;;;;;0.01;100.00;98873.13;1674939;85;21165;-65
2021/01/19 07:10:03;;;;;;;64.80;31.87;;;;;;;0.12;100.00;98873.87;1722612;81;21201;-66
2021/01/19 07:13:03;;;;;;;67.93;32.43;;;;;;;0.05;100.00;98880.84;1769714;81;21127;-64
2021/01/19 07:16:05;;;;;;;63.50;30.93;;;;;;;0.07;100.00;98876.59;1732596;83;21131;-62
2021/01/19 07:19:10;;;;;;;72.03;33.10;;;;;;;0.05;100.00;98880.84;1770566;81;21139;-59
2021/01/19 07:22:05;;;;;;;69.20;32.60;;;;;;;0.08;100.00;98879.49;1733735;82;21153;-63
2021/01/19 07:24:41;;;;;;;64.83;31.93;;;;;;;0.09;100.00;98879.23;1765548;81;21257;-62
2021/01/19 07:27:10;;;;;;;73.27;34.30;;;;;;;0.00;100.00;98882.99;1770635;81;21098;-63
2021/01/19 07:29:37;;;;;;;73.00;33.00;;;;;;;-0.02;100.00;98879.81;1770526;81;21094;-62
2021/01/19 07:32:12;;;;;;;73.07;34.47;;;;;;;0.22;100.00;98879.19;1734162;83;21095;-63
2021/01/19 07:34:39;;;;;;;68.20;32.87;;;;;;;0.31;100.00;98875.66;1733467;82;21568;-63
2021/01/19 07:37:05;;;;;;;74.67;35.67;;;;;;;0.27;100.00;98875.94;1770754;80;21099;-61
2021/01/19 07:39:33;;;;;;;70.50;34.40;;;;;;;0.35;100.00;98883.38;1770536;81;21128;-60
2021/01/19 07:42:17;;;;;;;66.50;32.83;;;;;;;0.37;100.00;98873.23;1770356;81;21150;-62
2021/01/19 07:44:58;;;;;;;65.50;32.67;;;;;;;0.32;100.00;98867.13;1771207;81;21169;-64
2021/01/19 07:47:42;;;;;;;68.40;33.73;;;;;;;0.36;100.00;98877.50;1766628;81;21158;-64
2021/01/19 07:50:14;;;;;;;62.80;31.47;;;;;;;0.28;100.00;98875.41;1771163;81;21086;-63
2021/01/19 07:52:42;;;;;;;71.62;37.10;;;;;;;0.32;100.00;98879.92;1782936;80;21130;-61
2021/01/19 07:55:22;;;;;;;68.80;33.93;;;;;;;0.44;100.00;98876.94;1779475;80;21538;-62
2021/01/19 07:57:52;;;;;;;65.03;33.10;;;;;;;0.45;100.00;98873.97;1718338;82;21183;-63
2021/01/19 08:00:26;;;;;;;66.27;33.47;;;;;;;0.57;100.00;98870.97;1724717;82;21154;-61
2021/01/19 08:03:06;;;;;;;70.87;34.93;;;;;;;0.61;100.00;98869.88;1705172;83;21110;-62
2021/01/19 08:05:32;;;;;;;66.07;31.23;;;;;;;0.64;100.00;98863.44;1710345;83;21091;-61
2021/01/19 08:07:59;;;;;;;70.50;31.27;;;;;;;0.69;100.00;98863.42;1723063;83;21555;-60
2021/01/19 08:10:33;;;;;;;69.53;33.20;;;;;;;0.68;100.00;98855.14;1722690;83;21220;-63
2021/01/19 08:13:03;;;;;;;70.50;33.73;;;;;;;0.68;100.00;98857.02;1704377;83;21540;-63
2021/01/19 08:15:34;;;;;;;63.77;31.33;;;;;;;0.76;100.00;98860.42;1721952;83;21196;-62
2021/01/19 08:17:59;;;;;;;61.77;31.20;;;;;;;0.85;100.00;98860.11;1690587;83;21584;-60
2021/01/19 08:20:33;;;;;;;61.43;29.63;;;;;;;0.92;100.00;98854.70;1720589;83;21577;-63
2021/01/19 08:23:13;;;;;;;53.40;27.77;;;;;;;0.93;100.00;98853.64;1722000;83;21155;-61
2021/01/19 08:25:40;;;;;;;58.77;28.93;;;;;;;0.98;100.00;98856.25;1723225;83;21152;-61
2021/01/19 08:28:08;;;;;;;54.70;26.10;;;;;;;1.08;100.00;98851.91;1722275;83;21411;-63
2021/01/19 08:30:34;;;;;;;52.83;26.60;;;;;;;1.15;100.00;98858.52;1720387;83;21173;-62
2021/01/19 08:33:01;;;;;;;64.60;28.53;;;;;;;1.19;100.00;98858.23;1714697;83;21783;-60
2021/01/19 08:35:28;;;;;;;55.47;28.67;;;;;;;1.15;100.00;98860.39;1719000;83;21078;-61
2021/01/19 08:37:57;;;;;;;54.07;26.60;;;;;;;1.14;100.00;98858.26;1737147;82;21179;-62
2021/01/19 08:40:26;;;;;;;55.13;26.87;;;;;;;1.20;100.00;98859.02;1725193;83;21593;-60
2021/01/19 08:42:53;;;;;;;50.13;27.83;;;;;;;1.31;99.10;98860.52;1729757;83;21176;-60
2021/01/19 08:45:31;;;;;;;53.90;27.33;;;;;;;1.37;98.46;98854.84;1720483;83;21540;-62
2021/01/19 08:48:00;;;;;;;54.73;25.80;;;;;;;1.44;99.12;98861.98;1715339;83;21137;-58
2021/01/19 08:50:28;;;;;;;49.40;25.40;;;;;;;1.43;97.98;98856.38;1719620;83;21645;-62
2021/01/19 08:52:54;;;;;;;47.03;24.70;;;;;;;1.58;98.42;98858.09;1700504;84;21206;-61
2021/01/19 08:55:25;;;;;;;44.73;22.87;;;;;;;1.62;97.76;98855.64;1704563;83;21519;-60
2021/01/19 08:57:58;;;;;;;49.33;25.20;;;;;;;1.62;97.06;98859.66;1703273;84;21091;-61
2021/01/19 09:00:33;;;;;;;53.60;24.03;;;;;;;1.60;97.67;98864.50;1707321;84;21150;-64
2021/01/19 09:02:59;;;;;;;48.77;25.23;;;;;;;1.69;96.08;98862.25;1704309;83;21150;-59
2021/01/19 09:05:29;;;;;;;50.00;23.17;;;;;;;1.79;96.33;98858.69;1769436;81;21151;-60
2021/01/19 09:07:57;;;;;;;47.57;23.30;;;;;;;1.86;95.92;98857.26;1743231;81;21531;-63
2021/01/19 09:10:28;;;;;;;38.67;20.10;;;;;;;1.97;96.93;98867.30;1771531;81;21102;-59
2021/01/19 09:12:55;;;;;;;39.90;20.20;;;;;;;1.94;94.88;98863.86;1732702;82;21191;-61
2021/01/19 09:15:23;;;;;;;43.00;22.47;;;;;;;1.97;94.86;98866.49;1767289;80;21074;-62
2021/01/19 09:17:57;;;;;;;47.07;22.07;;;;;;;2.07;95.52;98864.48;1765556;81;21632;-59
2021/01/19 09:20:26;;;;;;;43.17;19.80;;;;;;;2.18;95.27;98872.64;1733470;82;21550;-59
2021/01/19 09:22:53;;;;;;;44.77;20.63;;;;;;;2.30;93.09;98870.89;1767469;81;21106;-61
2021/01/19 09:25:22;;;;;;;39.37;18.87;;;;;;;2.38;92.70;98868.91;1743628;81;21164;-61
2021/01/19 09:27:47;;;;;;;42.83;20.03;;;;;;;2.54;92.09;98870.84;1731193;82;21091;-58
2021/01/19 09:30:17;;;;;;;32.97;17.90;;;;;;;2.75;91.19;98870.79;1735413;82;21180;-59
2021/01/19 09:32:44;;;;;;;32.70;15.13;;;;;;;2.95;90.81;98870.48;1729638;82;21552;-60
2021/01/19 09:35:13;;;;;;;35.93;17.17;;;;;;;3.20;90.14;98872.75;1729982;83;22070;-59
2021/01/19 09:37:40;;;;;;;38.83;18.00;;;;;;;3.36;88.42;98872.75;1729729;83;21592;-58
2021/01/19 09:40:08;;;;;;;37.13;16.27;;;;;;;3.62;87.66;98873.63;1729835;83;21099;-57
2021/01/19 09:42:40;;;;;;;32.87;16.03;;;;;;;3.66;87.10;98866.59;1730494;83;21075;-57
2021/01/19 09:45:09;;;;;;;32.30;15.90;;;;;;;3.68;86.72;98871.09;1728354;83;21573;-59
2021/01/19 09:47:37;;;;;;;37.63;17.63;;;;;;;3.74;85.46;98871.27;1729915;82;21121;-59
2021/01/19 09:50:09;;;;;;;29.63;14.40;;;;;;;3.71;86.74;98858.46;1710182;83;21123;-57
2021/01/19 09:52:35;;;;;;;;;;;;;;;3.71;86.62;98863.25;1732146;82;21147;-59
2021/01/19 09:55:09;;;;;;;29.73;15.93;;;;;;;3.62;84.64;98863.70;1730181;83;20119;-59
2021/01/19 09:57:35;;;;;;;31.77;16.00;;;;;;;3.71;86.83;98865.94;1717161;83;21143;-59
2021/01/19 10:00:02;;;;;;;30.07;15.50;;;;;;;3.75;87.01;98867.51;1717196;83;21258;-62
2021/01/19 10:02:28;;;;;;;33.47;14.10;;;;;;;3.71;86.33;98863.83;1716713;83;21115;-55
2021/01/19 10:05:00;;;;;;;26.90;14.17;;;;;;;3.77;86.51;98861.28;1690607;83;21249;-59
2021/01/19 10:07:29;;;;;;;27.58;14.43;;;;;;;3.76;85.36;98854.32;1733693;83;21098;-59
2021/01/19 10:10:13;;;;;;;30.77;14.87;;;;;;;3.81;85.56;98851.01;1712012;83;21618;-57
2021/01/19 10:12:39;;;;;;;26.93;13.90;;;;;;;3.93;86.33;98847.03;1778301;80;21134;-57
2021/01/19 10:15:07;;;;;;;30.50;13.90;;;;;;;3.82;85.48;98845.87;1748040;81;21083;-58
2021/01/19 10:17:34;;;;;;;28.63;14.57;;;;;;;3.81;85.74;98836.25;1741529;82;21111;-58
2021/01/19 10:20:15;;;;;;;27.47;12.57;;;;;;;3.78;86.52;98844.10;1778265;80;21098;-58
2021/01/19 10:22:43;;;;;;;26.27;13.53;;;;;;;3.71;86.61;98834.32;1741229;82;21111;-60
2021/01/19 10:25:12;;;;;;;23.23;12.33;;;;;;;3.58;85.89;98839.91;1778646;80;21192;-61
2021/01/19 10:27:42;;;;;;;24.87;13.53;;;;;;;3.67;86.14;98830.09;1768470;81;21110;-59
2021/01/19 10:30:12;;;;;;;30.67;11.93;;;;;;;3.65;86.38;98833.61;1732232;82;21125;-60
2021/01/19 10:32:47;;;;;;;26.97;13.07;;;;;;;3.66;86.54;98831.72;1768119;81;21131;-59
2021/01/19 10:35:14;;;;;;;28.77;13.23;;;;;;;3.68;86.40;98834.89;1765045;81;21112;-58
2021/01/19 10:37:57;;;;;;;25.80;12.83;;;;;;;3.74;86.45;98827.02;1770679;81;21141;-60
2021/01/19 10:40:23;;;;;;;28.60;13.17;;;;;;;3.72;86.18;98813.09;1763127;81;21083;-60
2021/01/19 10:42:49;;;;;;;26.67;13.50;;;;;;;3.69;85.94;98813.14;1767763;80;21625;-58
2021/01/19 10:45:30;;;;;;;30.43;13.30;;;;;;;3.86;86.98;98819.27;1713003;84;21228;-64
2021/01/19 10:47:58;;;;;;;22.97;12.83;;;;;;;3.73;86.23;98806.64;1747400;80;30542;-63
2021/01/19 10:50:30;;;;;;;30.77;14.07;;;;;;;3.82;86.85;98802.95;1748760;82;21570;-60
2021/01/19 10:53:01;;;;;;;29.30;14.58;;;;;;;4.03;86.33;98808.70;1712001;82;21153;-59
2021/01/19 10:55:27;;;;;;;32.77;14.40;;;;;;;4.10;86.35;98802.38;1712617;83;21138;-59
2021/01/19 10:58:00;;;;;;;26.87;15.60;;;;;;;4.18;86.41;98799.53;1732130;82;21087;-59
2021/01/19 11:00:26;;;;;;;31.27;15.87;;;;;;;4.30;86.80;98799.81;1784178;80;21111;-53
2021/01/19 11:02:54;;;;;;;30.37;15.47;;;;;;;4.29;86.34;98802.23;1747503;82;21157;-58
2021/01/19 11:05:20;;;;;;;31.53;14.73;;;;;;;4.33;86.37;98789.25;1784989;80;21255;-56
2021/01/19 11:07:48;;;;;;;29.87;15.53;;;;;;;4.30;86.08;98787.73;1747265;82;21544;-63
2021/01/19 11:10:15;;;;;;;31.43;15.57;;;;;;;4.26;86.04;98794.80;1784542;80;21095;-65
2021/01/19 11:12:42;;;;;;;30.00;14.67;;;;;;;4.14;85.70;98788.61;1747506;82;21504;-60
2021/01/19 11:15:08;;;;;;;30.10;15.30;;;;;;;4.23;86.00;98790.83;1784611;80;21125;-62
2021/01/19 11:17:36;;;;;;;38.37;15.97;;;;;;;4.24;86.20;98790.26;1784470;80;21112;-65
2021/01/19 11:20:07;;;;;;;31.10;15.03;;;;;;;4.28;86.30;98781.84;1719083;82;21149;-64
2021/01/19 11:22:34;;;;;;;31.85;16.17;;;;;;;4.24;86.21;98783.00;1784911;80;21067;-62
2021/01/19 11:25:00;;;;;;;37.13;16.60;;;;;;;4.10;86.00;98779.56;1747958;82;21127;-62
2021/01/19 11:27:26;;;;;;;28.70;13.70;;;;;;;4.12;86.13;98773.36;1785054;80;21112;-62
2021/01/19 11:29:52;;;;;;;43.00;18.77;;;;;;;4.08;85.64;98767.01;1747588;82;21141;-64